Estación Meteorológica Peña el Pijo (Robertgarden) [ 01/30/23 15:26:42 CET ]

Fecha Hora Presion(HPa) Temp (°C) Humedad % Rocio (°C) Viento ( m/s) Direccion Lluvia 1Hora(mm) Lluvia 24H(mm) LLuvia Total(mm)
2012-Jul-05 01:01:17 1008.300 16.4 44 4.0         167.83
2012-Jul-05 02:01:12 1007.800 15.9 45 3.9         167.83
2012-Jul-05 03:03:17 1007.500 14.8 48 3.9         167.83
2012-Jul-05 04:01:12 1007.100 14.1 55 5.2         167.83
2012-Jul-05 05:01:14 1006.900 13.4 60 5.8         167.83
2012-Jul-05 06:01:16 1006.700 13.0 63 6.1         167.83
2012-Jul-05 07:01:16 1006.900 13.9 62 6.7         167.83
2012-Jul-05 08:01:13 1007.200 15.6 61 8.1         167.83
2012-Jul-05 09:01:12 1007.000 21.6 46 9.4 1.0 S     167.83
2012-Jul-05 10:01:13 1007.100 24.6 39 9.7         167.83
2012-Jul-05 11:01:13 1006.900 26.9 32 8.8         167.83
2012-Jul-05 12:01:17 1007.100 28.4 29 8.6         167.83
2012-Jul-05 13:01:16 1006.900 29.6 25 7.3         167.83
2012-Jul-05 14:01:12 1007.000 30.9 22 6.6 2.4 S     167.83
2012-Jul-05 15:01:18 1006.900 31.6 20 6.0         167.83
2012-Jul-05 16:01:10 1006.800 32.2 19 5.5         167.83
2012-Jul-05 17:01:17 1006.800 31.9 20 6.2 0.7 SE     167.83
2012-Jul-05 18:01:14 1006.700 31.6 18 4.0 1.6 SSW     167.83
2012-Jul-05 19:01:12 1006.500 30.1 17 1.8         167.83
2012-Jul-05 20:01:13 1006.800 28.3 19 2.3         167.83
2012-Jul-05 21:01:11 1007.000 24.8 23 2.1 3.7 SSW     167.83
2012-Jul-05 22:01:17 1007.600 23.2 26 2.4         167.83
2012-Jul-05 23:01:11 1008.400 19.8 32 2.5         167.83

Temperatura Máxima:32°    Temperatura Mínima:13°
Presión Máxima:1008.400 Hpa    Presión Mínima:1006.500 Hpa


Volver